Woodville, Texas
Current Conditions -  °F | °C
As of 3:35 PM on Friday 24 Oct 2014 (Local Time) from KJAS Reporting Station
Clear Clear  
Wind Chill: 76°   Ceiling: Unl
Heat Index: 76°   Visibility: 10mi
Dew Point: 49°   Wind: 5mph
Humidity: 39%   Direction: 350°N
Pressure: 30.12"   Gusts: NA
Location:  30.75°N, 94.42°W
Report Text: KJAS 242035Z AUTO 35004KT 10SM CLR 24/10 A3012 RMK AO2 T02440097
Loading
Personal Weather Stations






























Interactive Weather Map
Tropical Storm Tracking
New forecast layout! Learn more

10-Day Weather Forecast

Advertisements
Track Severe Weather on mobile